sensor_id;sensor_type;location;lat;lon;timestamp;P1;durP1;ratioP1;P2;durP2;ratioP2
42704;SDS011;28342;42.594;23.414;2023-02-02T00:01:43;44.30;;;17.27;;
42704;SDS011;28342;42.594;23.414;2023-02-02T00:04:17;44.75;;;18.25;;
42704;SDS011;28342;42.594;23.414;2023-02-02T00:06:43;44.05;;;16.20;;
42704;SDS011;28342;42.594;23.414;2023-02-02T00:09:13;38.42;;;14.88;;
42704;SDS011;28342;42.594;23.414;2023-02-02T00:11:42;36.75;;;15.20;;
42704;SDS011;28342;42.594;23.414;2023-02-02T00:14:15;32.10;;;13.57;;
42704;SDS011;28342;42.594;23.414;2023-02-02T00:16:47;31.15;;;13.20;;
42704;SDS011;28342;42.594;23.414;2023-02-02T00:19:15;22.30;;;10.02;;
42704;SDS011;28342;42.594;23.414;2023-02-02T00:21:51;20.33;;;9.43;;
42704;SDS011;28342;42.594;23.414;2023-02-02T00:24:17;34.67;;;16.23;;
42704;SDS011;28342;42.594;23.414;2023-02-02T00:26:44;51.65;;;22.85;;
42704;SDS011;28342;42.594;23.414;2023-02-02T00:29:21;46.22;;;21.65;;
42704;SDS011;28342;42.594;23.414;2023-02-02T00:31:51;40.88;;;18.05;;
42704;SDS011;28342;42.594;23.414;2023-02-02T00:34:17;38.75;;;17.55;;
42704;SDS011;28342;42.594;23.414;2023-02-02T00:36:43;52.53;;;17.83;;
42704;SDS011;28342;42.594;23.414;2023-02-02T00:39:11;20.33;;;8.57;;
42704;SDS011;28342;42.594;23.414;2023-02-02T00:41:40;23.80;;;11.02;;
42704;SDS011;28342;42.594;23.414;2023-02-02T00:44:06;23.75;;;9.50;;
42704;SDS011;28342;42.594;23.414;2023-02-02T00:46:51;25.25;;;9.63;;
42704;SDS011;28342;42.594;23.414;2023-02-02T00:49:17;15.20;;;6.45;;
42704;SDS011;28342;42.594;23.414;2023-02-02T00:51:42;10.45;;;5.10;;
42704;SDS011;28342;42.594;23.414;2023-02-02T00:54:09;10.25;;;3.55;;
42704;SDS011;28342;42.594;23.414;2023-02-02T00:56:35;8.63;;;3.42;;
42704;SDS011;28342;42.594;23.414;2023-02-02T00:59:00;10.15;;;2.40;;
42704;SDS011;28342;42.594;23.414;2023-02-02T01:01:27;10.60;;;2.65;;
42704;SDS011;28342;42.594;23.414;2023-02-02T01:03:53;5.43;;;2.67;;
42704;SDS011;28342;42.594;23.414;2023-02-02T01:06:19;7.15;;;2.47;;
42704;SDS011;28342;42.594;23.414;2023-02-02T01:08:45;5.22;;;2.20;;
42704;SDS011;28342;42.594;23.414;2023-02-02T01:11:10;7.45;;;2.58;;
42704;SDS011;28342;42.594;23.414;2023-02-02T01:13:36;5.32;;;2.10;;
42704;SDS011;28342;42.594;23.414;2023-02-02T01:16:03;5.75;;;3.05;;
42704;SDS011;28342;42.594;23.414;2023-02-02T01:18:31;10.52;;;2.92;;
42704;SDS011;28342;42.594;23.414;2023-02-02T01:23:27;7.45;;;3.13;;
42704;SDS011;28342;42.594;23.414;2023-02-02T01:25:58;7.68;;;3.20;;
42704;SDS011;28342;42.594;23.414;2023-02-02T01:28:26;13.18;;;3.63;;
42704;SDS011;28342;42.594;23.414;2023-02-02T01:30:53;7.38;;;3.50;;
42704;SDS011;28342;42.594;23.414;2023-02-02T01:33:20;9.02;;;4.00;;
42704;SDS011;28342;42.594;23.414;2023-02-02T01:35:47;10.32;;;4.50;;
42704;SDS011;28342;42.594;23.414;2023-02-02T01:38:19;8.63;;;3.53;;
42704;SDS011;28342;42.594;23.414;2023-02-02T01:40:46;10.25;;;4.53;;
42704;SDS011;28342;42.594;23.414;2023-02-02T01:43:23;14.48;;;5.75;;
42704;SDS011;28342;42.594;23.414;2023-02-02T01:45:51;13.95;;;5.70;;
42704;SDS011;28342;42.594;23.414;2023-02-02T01:48:18;13.43;;;6.18;;
42704;SDS011;28342;42.594;23.414;2023-02-02T01:50:51;13.40;;;6.55;;
42704;SDS011;28342;42.594;23.414;2023-02-02T01:53:20;17.02;;;7.65;;
42704;SDS011;28342;42.594;23.414;2023-02-02T01:55:47;15.32;;;6.57;;
42704;SDS011;28342;42.594;23.414;2023-02-02T01:58:29;9.75;;;4.78;;
42704;SDS011;28342;42.594;23.414;2023-02-02T02:00:59;14.05;;;5.68;;
42704;SDS011;28342;42.594;23.414;2023-02-02T02:03:25;11.32;;;5.25;;
42704;SDS011;28342;42.594;23.414;2023-02-02T02:06:02;9.43;;;4.78;;
42704;SDS011;28342;42.594;23.414;2023-02-02T02:11:16;15.93;;;6.75;;
42704;SDS011;28342;42.594;23.414;2023-02-02T02:13:46;19.83;;;9.13;;
42704;SDS011;28342;42.594;23.414;2023-02-02T02:16:45;24.88;;;10.23;;
42704;SDS011;28342;42.594;23.414;2023-02-02T02:26:50;19.17;;;8.45;;
42704;SDS011;28342;42.594;23.414;2023-02-02T02:43:32;17.67;;;7.93;;
42704;SDS011;28342;42.594;23.414;2023-02-02T02:46:06;14.05;;;6.78;;
42704;SDS011;28342;42.594;23.414;2023-02-02T02:48:32;15.30;;;7.00;;
42704;SDS011;28342;42.594;23.414;2023-02-02T02:51:05;14.98;;;7.78;;
42704;SDS011;28342;42.594;23.414;2023-02-02T02:53:50;24.60;;;11.05;;
42704;SDS011;28342;42.594;23.414;2023-02-02T02:56:21;15.68;;;6.45;;
42704;SDS011;28342;42.594;23.414;2023-02-02T02:59:06;24.17;;;10.70;;
42704;SDS011;28342;42.594;23.414;2023-02-02T03:02:00;19.92;;;10.60;;
42704;SDS011;28342;42.594;23.414;2023-02-02T03:07:25;9.05;;;3.50;;
42704;SDS011;28342;42.594;23.414;2023-02-02T03:10:22;8.75;;;3.55;;
42704;SDS011;28342;42.594;23.414;2023-02-02T03:13:09;6.21;;;3.09;;
42704;SDS011;28342;42.594;23.414;2023-02-02T03:15:42;6.06;;;2.89;;
42704;SDS011;28342;42.594;23.414;2023-02-02T03:18:08;9.70;;;3.70;;
42704;SDS011;28342;42.594;23.414;2023-02-02T03:20:35;9.23;;;4.30;;
42704;SDS011;28342;42.594;23.414;2023-02-02T03:23:00;11.90;;;5.70;;
42704;SDS011;28342;42.594;23.414;2023-02-02T03:25:25;12.20;;;5.75;;
42704;SDS011;28342;42.594;23.414;2023-02-02T03:27:51;16.15;;;6.55;;
42704;SDS011;28342;42.594;23.414;2023-02-02T03:30:17;19.42;;;9.02;;
42704;SDS011;28342;42.594;23.414;2023-02-02T03:32:44;18.30;;;9.10;;
42704;SDS011;28342;42.594;23.414;2023-02-02T03:35:11;13.70;;;5.80;;
42704;SDS011;28342;42.594;23.414;2023-02-02T03:37:37;12.18;;;5.28;;
42704;SDS011;28342;42.594;23.414;2023-02-02T03:40:04;14.18;;;6.82;;
42704;SDS011;28342;42.594;23.414;2023-02-02T03:42:30;22.00;;;9.20;;
42704;SDS011;28342;42.594;23.414;2023-02-02T03:44:56;24.70;;;11.88;;
42704;SDS011;28342;42.594;23.414;2023-02-02T03:47:21;24.50;;;11.73;;
42704;SDS011;28342;42.594;23.414;2023-02-02T03:49:47;21.63;;;9.18;;
42704;SDS011;28342;42.594;23.414;2023-02-02T03:52:12;22.98;;;10.07;;
42704;SDS011;28342;42.594;23.414;2023-02-02T03:54:38;22.77;;;10.25;;
42704;SDS011;28342;42.594;23.414;2023-02-02T03:57:03;19.17;;;8.85;;
42704;SDS011;28342;42.594;23.414;2023-02-02T03:59:29;20.85;;;6.13;;
42704;SDS011;28342;42.594;23.414;2023-02-02T04:01:55;11.45;;;5.93;;
42704;SDS011;28342;42.594;23.414;2023-02-02T04:04:20;11.88;;;4.25;;
42704;SDS011;28342;42.594;23.414;2023-02-02T04:06:46;13.07;;;5.22;;
42704;SDS011;28342;42.594;23.414;2023-02-02T04:09:11;9.68;;;4.40;;
42704;SDS011;28342;42.594;23.414;2023-02-02T04:11:37;9.38;;;4.97;;
42704;SDS011;28342;42.594;23.414;2023-02-02T04:14:02;10.13;;;5.18;;
42704;SDS011;28342;42.594;23.414;2023-02-02T04:16:27;8.98;;;4.70;;
42704;SDS011;28342;42.594;23.414;2023-02-02T04:18:58;14.18;;;6.93;;
42704;SDS011;28342;42.594;23.414;2023-02-02T04:21:25;10.85;;;5.32;;
42704;SDS011;28342;42.594;23.414;2023-02-02T04:23:53;6.43;;;4.05;;
42704;SDS011;28342;42.594;23.414;2023-02-02T04:26:20;7.97;;;4.53;;
42704;SDS011;28342;42.594;23.414;2023-02-02T04:28:51;9.27;;;4.55;;
42704;SDS011;28342;42.594;23.414;2023-02-02T04:31:18;13.90;;;4.80;;
42704;SDS011;28342;42.594;23.414;2023-02-02T04:33:44;10.02;;;4.55;;
42704;SDS011;28342;42.594;23.414;2023-02-02T04:36:09;8.75;;;4.38;;
42704;SDS011;28342;42.594;23.414;2023-02-02T04:38:36;10.43;;;5.18;;
42704;SDS011;28342;42.594;23.414;2023-02-02T04:41:07;13.95;;;6.88;;
42704;SDS011;28342;42.594;23.414;2023-02-02T04:43:34;15.40;;;6.30;;
42704;SDS011;28342;42.594;23.414;2023-02-02T04:46:01;17.77;;;7.45;;
42704;SDS011;28342;42.594;23.414;2023-02-02T04:48:29;20.73;;;8.98;;
42704;SDS011;28342;42.594;23.414;2023-02-02T04:51:02;18.85;;;8.68;;
42704;SDS011;28342;42.594;23.414;2023-02-02T04:53:30;24.52;;;9.75;;
42704;SDS011;28342;42.594;23.414;2023-02-02T04:55:56;20.92;;;8.48;;
42704;SDS011;28342;42.594;23.414;2023-02-02T04:58:22;13.90;;;6.50;;
42704;SDS011;28342;42.594;23.414;2023-02-02T05:00:48;17.45;;;8.02;;
42704;SDS011;28342;42.594;23.414;2023-02-02T05:03:14;15.32;;;7.45;;
42704;SDS011;28342;42.594;23.414;2023-02-02T05:05:40;24.52;;;9.50;;
42704;SDS011;28342;42.594;23.414;2023-02-02T05:08:06;17.65;;;9.23;;
42704;SDS011;28342;42.594;23.414;2023-02-02T05:10:38;18.92;;;8.80;;
42704;SDS011;28342;42.594;23.414;2023-02-02T05:13:04;23.08;;;9.85;;
42704;SDS011;28342;42.594;23.414;2023-02-02T05:15:30;19.60;;;10.25;;
42704;SDS011;28342;42.594;23.414;2023-02-02T05:17:56;22.88;;;10.23;;
42704;SDS011;28342;42.594;23.414;2023-02-02T05:20:24;23.42;;;11.15;;
42704;SDS011;28342;42.594;23.414;2023-02-02T05:22:49;17.33;;;9.63;;
42704;SDS011;28342;42.594;23.414;2023-02-02T05:25:15;20.98;;;9.68;;
42704;SDS011;28342;42.594;23.414;2023-02-02T05:27:44;20.85;;;10.18;;
42704;SDS011;28342;42.594;23.414;2023-02-02T05:32:40;18.17;;;9.10;;
42704;SDS011;28342;42.594;23.414;2023-02-02T05:35:06;24.42;;;9.05;;
42704;SDS011;28342;42.594;23.414;2023-02-02T05:37:33;17.05;;;9.15;;
42704;SDS011;28342;42.594;23.414;2023-02-02T05:39:59;16.90;;;8.52;;
42704;SDS011;28342;42.594;23.414;2023-02-02T05:42:24;16.67;;;9.20;;
42704;SDS011;28342;42.594;23.414;2023-02-02T05:44:49;14.27;;;6.97;;
42704;SDS011;28342;42.594;23.414;2023-02-02T05:47:15;21.75;;;9.00;;
42704;SDS011;28342;42.594;23.414;2023-02-02T05:49:42;16.95;;;8.43;;
42704;SDS011;28342;42.594;23.414;2023-02-02T05:52:08;15.68;;;7.85;;
42704;SDS011;28342;42.594;23.414;2023-02-02T05:54:41;15.30;;;8.52;;
42704;SDS011;28342;42.594;23.414;2023-02-02T05:57:07;17.17;;;7.93;;
42704;SDS011;28342;42.594;23.414;2023-02-02T05:59:33;16.55;;;8.75;;
42704;SDS011;28342;42.594;23.414;2023-02-02T06:01:58;21.90;;;9.05;;
42704;SDS011;28342;42.594;23.414;2023-02-02T06:04:24;21.20;;;9.20;;
42704;SDS011;28342;42.594;23.414;2023-02-02T06:06:49;27.98;;;9.30;;
42704;SDS011;28342;42.594;23.414;2023-02-02T06:09:15;27.50;;;11.30;;
42704;SDS011;28342;42.594;23.414;2023-02-02T06:11:42;20.20;;;10.05;;
42704;SDS011;28342;42.594;23.414;2023-02-02T06:14:08;34.97;;;10.63;;
42704;SDS011;28342;42.594;23.414;2023-02-02T06:16:34;21.27;;;10.60;;
42704;SDS011;28342;42.594;23.414;2023-02-02T06:19:08;32.65;;;14.25;;
42704;SDS011;28342;42.594;23.414;2023-02-02T06:21:34;30.65;;;15.20;;
42704;SDS011;28342;42.594;23.414;2023-02-02T06:24:02;36.53;;;15.85;;
42704;SDS011;28342;42.594;23.414;2023-02-02T06:26:30;51.67;;;23.40;;
42704;SDS011;28342;42.594;23.414;2023-02-02T06:28:58;54.10;;;22.40;;
42704;SDS011;28342;42.594;23.414;2023-02-02T06:31:23;33.70;;;14.75;;
42704;SDS011;28342;42.594;23.414;2023-02-02T06:33:53;49.08;;;19.30;;
42704;SDS011;28342;42.594;23.414;2023-02-02T06:36:26;29.25;;;12.95;;
42704;SDS011;28342;42.594;23.414;2023-02-02T06:38:55;31.95;;;14.05;;
42704;SDS011;28342;42.594;23.414;2023-02-02T06:41:22;33.53;;;14.65;;
42704;SDS011;28342;42.594;23.414;2023-02-02T06:43:48;27.50;;;11.98;;
42704;SDS011;28342;42.594;23.414;2023-02-02T06:46:14;26.17;;;11.82;;
42704;SDS011;28342;42.594;23.414;2023-02-02T06:48:40;28.00;;;13.05;;
42704;SDS011;28342;42.594;23.414;2023-02-02T06:51:08;28.08;;;13.40;;
42704;SDS011;28342;42.594;23.414;2023-02-02T06:53:42;25.90;;;11.40;;
42704;SDS011;28342;42.594;23.414;2023-02-02T06:56:08;20.00;;;9.25;;
42704;SDS011;28342;42.594;23.414;2023-02-02T06:58:37;26.15;;;11.15;;
42704;SDS011;28342;42.594;23.414;2023-02-02T07:01:04;31.50;;;15.70;;
42704;SDS011;28342;42.594;23.414;2023-02-02T07:03:32;31.55;;;12.73;;
42704;SDS011;28342;42.594;23.414;2023-02-02T07:05:58;45.97;;;20.23;;
42704;SDS011;28342;42.594;23.414;2023-02-02T07:08:24;15.73;;;7.25;;
42704;SDS011;28342;42.594;23.414;2023-02-02T07:10:50;18.77;;;8.70;;
42704;SDS011;28342;42.594;23.414;2023-02-02T07:13:15;58.97;;;21.20;;
42704;SDS011;28342;42.594;23.414;2023-02-02T07:15:41;97.00;;;29.35;;
42704;SDS011;28342;42.594;23.414;2023-02-02T07:18:06;118.78;;;37.03;;
42704;SDS011;28342;42.594;23.414;2023-02-02T07:20:32;106.70;;;31.85;;
42704;SDS011;28342;42.594;23.414;2023-02-02T07:22:58;97.22;;;30.67;;
42704;SDS011;28342;42.594;23.414;2023-02-02T07:25:29;69.25;;;24.38;;
42704;SDS011;28342;42.594;23.414;2023-02-02T07:27:56;80.30;;;25.25;;
42704;SDS011;28342;42.594;23.414;2023-02-02T07:30:22;60.80;;;17.60;;
42704;SDS011;28342;42.594;23.414;2023-02-02T07:32:49;69.57;;;24.00;;
42704;SDS011;28342;42.594;23.414;2023-02-02T07:35:15;54.60;;;17.92;;
42704;SDS011;28342;42.594;23.414;2023-02-02T07:37:41;44.28;;;14.98;;
42704;SDS011;28342;42.594;23.414;2023-02-02T07:40:07;46.40;;;17.17;;
42704;SDS011;28342;42.594;23.414;2023-02-02T07:42:34;45.00;;;15.80;;
42704;SDS011;28342;42.594;23.414;2023-02-02T07:45:00;40.03;;;15.60;;
42704;SDS011;28342;42.594;23.414;2023-02-02T07:47:26;44.38;;;15.27;;
42704;SDS011;28342;42.594;23.414;2023-02-02T07:49:51;45.58;;;17.15;;
42704;SDS011;28342;42.594;23.414;2023-02-02T07:52:17;37.97;;;17.45;;
42704;SDS011;28342;42.594;23.414;2023-02-02T07:54:42;39.22;;;15.80;;
42704;SDS011;28342;42.594;23.414;2023-02-02T07:57:08;34.83;;;15.32;;
42704;SDS011;28342;42.594;23.414;2023-02-02T07:59:38;30.10;;;11.85;;
42704;SDS011;28342;42.594;23.414;2023-02-02T08:02:03;27.95;;;11.70;;
42704;SDS011;28342;42.594;23.414;2023-02-02T08:04:29;32.85;;;12.50;;
42704;SDS011;28342;42.594;23.414;2023-02-02T08:06:58;25.95;;;11.43;;
42704;SDS011;28342;42.594;23.414;2023-02-02T08:09:25;32.00;;;11.93;;
42704;SDS011;28342;42.594;23.414;2023-02-02T08:11:50;22.52;;;10.95;;
42704;SDS011;28342;42.594;23.414;2023-02-02T08:14:16;17.85;;;10.02;;
42704;SDS011;28342;42.594;23.414;2023-02-02T08:16:43;21.00;;;10.73;;
42704;SDS011;28342;42.594;23.414;2023-02-02T08:19:09;21.38;;;9.50;;
42704;SDS011;28342;42.594;23.414;2023-02-02T08:21:36;16.25;;;8.65;;
42704;SDS011;28342;42.594;23.414;2023-02-02T08:24:03;20.45;;;9.20;;
42704;SDS011;28342;42.594;23.414;2023-02-02T08:26:30;17.08;;;8.85;;
42704;SDS011;28342;42.594;23.414;2023-02-02T08:28:57;14.70;;;7.55;;
42704;SDS011;28342;42.594;23.414;2023-02-02T08:31:28;12.45;;;6.35;;
42704;SDS011;28342;42.594;23.414;2023-02-02T08:34:02;14.55;;;6.15;;
42704;SDS011;28342;42.594;23.414;2023-02-02T08:36:29;12.63;;;5.78;;
42704;SDS011;28342;42.594;23.414;2023-02-02T08:38:58;11.07;;;5.88;;
42704;SDS011;28342;42.594;23.414;2023-02-02T08:41:24;27.20;;;12.35;;
42704;SDS011;28342;42.594;23.414;2023-02-02T08:43:50;36.53;;;15.38;;
42704;SDS011;28342;42.594;23.414;2023-02-02T08:46:16;34.55;;;16.67;;
42704;SDS011;28342;42.594;23.414;2023-02-02T08:48:43;27.55;;;12.20;;
42704;SDS011;28342;42.594;23.414;2023-02-02T08:51:09;22.75;;;11.88;;
42704;SDS011;28342;42.594;23.414;2023-02-02T08:53:36;22.50;;;11.30;;
42704;SDS011;28342;42.594;23.414;2023-02-02T08:56:03;29.27;;;13.93;;
42704;SDS011;28342;42.594;23.414;2023-02-02T08:58:32;27.70;;;13.30;;
42704;SDS011;28342;42.594;23.414;2023-02-02T09:01:05;20.63;;;9.70;;
42704;SDS011;28342;42.594;23.414;2023-02-02T09:03:32;14.38;;;8.38;;
42704;SDS011;28342;42.594;23.414;2023-02-02T09:06:03;20.90;;;11.57;;
42704;SDS011;28342;42.594;23.414;2023-02-02T09:08:33;20.35;;;11.77;;
42704;SDS011;28342;42.594;23.414;2023-02-02T09:11:05;24.23;;;11.07;;
42704;SDS011;28342;42.594;23.414;2023-02-02T09:13:33;27.02;;;10.35;;
42704;SDS011;28342;42.594;23.414;2023-02-02T09:16:00;35.53;;;14.93;;
42704;SDS011;28342;42.594;23.414;2023-02-02T09:18:29;29.08;;;11.88;;
42704;SDS011;28342;42.594;23.414;2023-02-02T09:20:58;24.48;;;12.02;;
42704;SDS011;28342;42.594;23.414;2023-02-02T09:23:24;25.92;;;11.90;;
42704;SDS011;28342;42.594;23.414;2023-02-02T09:25:51;19.83;;;10.50;;
42704;SDS011;28342;42.594;23.414;2023-02-02T09:28:16;25.67;;;11.50;;
42704;SDS011;28342;42.594;23.414;2023-02-02T09:30:42;20.77;;;10.48;;
42704;SDS011;28342;42.594;23.414;2023-02-02T09:33:09;20.80;;;9.77;;
42704;SDS011;28342;42.594;23.414;2023-02-02T09:35:37;20.83;;;8.85;;
42704;SDS011;28342;42.594;23.414;2023-02-02T09:38:02;22.25;;;10.68;;
42704;SDS011;28342;42.594;23.414;2023-02-02T09:40:28;36.30;;;11.93;;
42704;SDS011;28342;42.594;23.414;2023-02-02T09:45:44;22.27;;;9.90;;
42704;SDS011;28342;42.594;23.414;2023-02-02T09:50:58;15.20;;;7.63;;
42704;SDS011;28342;42.594;23.414;2023-02-02T09:56:17;21.63;;;10.02;;
42704;SDS011;28342;42.594;23.414;2023-02-02T09:58:56;14.80;;;8.07;;
42704;SDS011;28342;42.594;23.414;2023-02-02T10:01:33;11.32;;;6.53;;
42704;SDS011;28342;42.594;23.414;2023-02-02T10:04:03;15.77;;;7.85;;
42704;SDS011;28342;42.594;23.414;2023-02-02T10:09:17;17.08;;;7.25;;
42704;SDS011;28342;42.594;23.414;2023-02-02T10:14:30;13.90;;;6.97;;
42704;SDS011;28342;42.594;23.414;2023-02-02T10:17:24;12.82;;;6.18;;
42704;SDS011;28342;42.594;23.414;2023-02-02T10:20:28;7.45;;;4.70;;
42704;SDS011;28342;42.594;23.414;2023-02-02T10:22:58;9.50;;;4.60;;
42704;SDS011;28342;42.594;23.414;2023-02-02T10:25:35;6.05;;;3.85;;
42704;SDS011;28342;42.594;23.414;2023-02-02T10:28:10;5.95;;;3.60;;
42704;SDS011;28342;42.594;23.414;2023-02-02T10:30:44;12.48;;;7.78;;
42704;SDS011;28342;42.594;23.414;2023-02-02T10:33:19;14.80;;;9.23;;
42704;SDS011;28342;42.594;23.414;2023-02-02T10:39:00;9.82;;;4.70;;
42704;SDS011;28342;42.594;23.414;2023-02-02T10:44:47;9.35;;;5.18;;
42704;SDS011;28342;42.594;23.414;2023-02-02T10:47:27;8.38;;;4.53;;
42704;SDS011;28342;42.594;23.414;2023-02-02T10:50:09;10.07;;;4.22;;
42704;SDS011;28342;42.594;23.414;2023-02-02T10:52:51;21.65;;;7.18;;
42704;SDS011;28342;42.594;23.414;2023-02-02T10:55:24;9.93;;;4.43;;
42704;SDS011;28342;42.594;23.414;2023-02-02T11:03:10;4.25;;;2.72;;
42704;SDS011;28342;42.594;23.414;2023-02-02T11:05:37;3.95;;;2.83;;
42704;SDS011;28342;42.594;23.414;2023-02-02T11:14:33;6.68;;;2.53;;
42704;SDS011;28342;42.594;23.414;2023-02-02T11:16:39;4.75;;;3.28;;
42704;SDS011;28342;42.594;23.414;2023-02-02T11:19:33;3.60;;;2.38;;
42704;SDS011;28342;42.594;23.414;2023-02-02T11:21:58;7.07;;;4.22;;
42704;SDS011;28342;42.594;23.414;2023-02-02T11:29:56;4.13;;;2.72;;
42704;SDS011;28342;42.594;23.414;2023-02-02T11:32:32;4.93;;;2.88;;
42704;SDS011;28342;42.594;23.414;2023-02-02T11:37:51;6.07;;;3.70;;
42704;SDS011;28342;42.594;23.414;2023-02-02T11:40:25;5.72;;;2.35;;
42704;SDS011;28342;42.594;23.414;2023-02-02T11:43:01;7.22;;;2.75;;
42704;SDS011;28342;42.594;23.414;2023-02-02T11:45:32;5.90;;;2.83;;
42704;SDS011;28342;42.594;23.414;2023-02-02T11:48:05;7.57;;;2.80;;
42704;SDS011;28342;42.594;23.414;2023-02-02T11:50:43;10.65;;;3.28;;
42704;SDS011;28342;42.594;23.414;2023-02-02T11:56:20;5.80;;;2.83;;
42704;SDS011;28342;42.594;23.414;2023-02-02T11:58:55;3.75;;;2.30;;
42704;SDS011;28342;42.594;23.414;2023-02-02T12:01:27;8.93;;;2.42;;
42704;SDS011;28342;42.594;23.414;2023-02-02T12:04:01;7.13;;;2.80;;
42704;SDS011;28342;42.594;23.414;2023-02-02T12:06:45;5.95;;;2.30;;
42704;SDS011;28342;42.594;23.414;2023-02-02T12:09:12;5.57;;;2.90;;
42704;SDS011;28342;42.594;23.414;2023-02-02T12:17:09;16.33;;;2.63;;
42704;SDS011;28342;42.594;23.414;2023-02-02T12:19:56;5.60;;;2.38;;
42704;SDS011;28342;42.594;23.414;2023-02-02T12:22:47;4.78;;;2.67;;
42704;SDS011;28342;42.594;23.414;2023-02-02T12:28:29;5.55;;;2.80;;
42704;SDS011;28342;42.594;23.414;2023-02-02T12:34:15;3.17;;;2.17;;
42704;SDS011;28342;42.594;23.414;2023-02-02T12:40:02;5.63;;;1.98;;
42704;SDS011;28342;42.594;23.414;2023-02-02T12:42:56;6.47;;;3.80;;
42704;SDS011;28342;42.594;23.414;2023-02-02T12:49:00;3.88;;;1.98;;
42704;SDS011;28342;42.594;23.414;2023-02-02T12:51:54;5.30;;;3.03;;
42704;SDS011;28342;42.594;23.414;2023-02-02T12:54:49;8.75;;;3.58;;
42704;SDS011;28342;42.594;23.414;2023-02-02T12:57:27;7.82;;;3.33;;
42704;SDS011;28342;42.594;23.414;2023-02-02T13:03:35;6.90;;;2.50;;
42704;SDS011;28342;42.594;23.414;2023-02-02T13:11:34;8.02;;;2.45;;
42704;SDS011;28342;42.594;23.414;2023-02-02T13:14:08;7.25;;;2.85;;
42704;SDS011;28342;42.594;23.414;2023-02-02T13:16:49;8.27;;;4.38;;
42704;SDS011;28342;42.594;23.414;2023-02-02T13:19:29;6.80;;;3.63;;
42704;SDS011;28342;42.594;23.414;2023-02-02T13:22:00;5.45;;;2.17;;
42704;SDS011;28342;42.594;23.414;2023-02-02T13:24:30;8.77;;;3.50;;
42704;SDS011;28342;42.594;23.414;2023-02-02T13:27:00;3.63;;;2.05;;
42704;SDS011;28342;42.594;23.414;2023-02-02T13:32:37;27.70;;;11.73;;
42704;SDS011;28342;42.594;23.414;2023-02-02T13:35:22;8.40;;;3.55;;
42704;SDS011;28342;42.594;23.414;2023-02-02T13:38:03;3.92;;;2.22;;
42704;SDS011;28342;42.594;23.414;2023-02-02T13:40:38;4.15;;;1.88;;
42704;SDS011;28342;42.594;23.414;2023-02-02T14:00:21;9.68;;;4.65;;
42704;SDS011;28342;42.594;23.414;2023-02-02T14:03:03;13.60;;;5.72;;
42704;SDS011;28342;42.594;23.414;2023-02-02T14:05:38;5.25;;;2.65;;
42704;SDS011;28342;42.594;23.414;2023-02-02T14:08:21;11.40;;;5.50;;
42704;SDS011;28342;42.594;23.414;2023-02-02T14:13:18;5.25;;;2.35;;
42704;SDS011;28342;42.594;23.414;2023-02-02T14:16:05;7.28;;;3.60;;
42704;SDS011;28342;42.594;23.414;2023-02-02T14:26:46;4.90;;;3.03;;
42704;SDS011;28342;42.594;23.414;2023-02-02T14:34:54;6.47;;;2.95;;
42704;SDS011;28342;42.594;23.414;2023-02-02T14:43:29;3.33;;;2.17;;
42704;SDS011;28342;42.594;23.414;2023-02-02T14:48:48;5.22;;;2.88;;
42704;SDS011;28342;42.594;23.414;2023-02-02T14:51:31;4.40;;;1.90;;
42704;SDS011;28342;42.594;23.414;2023-02-02T14:54:13;2.75;;;2.03;;
42704;SDS011;28342;42.594;23.414;2023-02-02T14:56:50;3.90;;;2.47;;
42704;SDS011;28342;42.594;23.414;2023-02-02T15:02:07;11.40;;;6.40;;
42704;SDS011;28342;42.594;23.414;2023-02-02T15:04:36;10.68;;;3.72;;
42704;SDS011;28342;42.594;23.414;2023-02-02T15:09:51;9.50;;;4.80;;
42704;SDS011;28342;42.594;23.414;2023-02-02T15:12:25;9.63;;;5.10;;
42704;SDS011;28342;42.594;23.414;2023-02-02T15:15:14;13.55;;;6.63;;
42704;SDS011;28342;42.594;23.414;2023-02-02T15:17:46;10.98;;;6.57;;
42704;SDS011;28342;42.594;23.414;2023-02-02T15:30:50;10.77;;;4.05;;
42704;SDS011;28342;42.594;23.414;2023-02-02T15:33:26;7.13;;;4.25;;
42704;SDS011;28342;42.594;23.414;2023-02-02T15:35:57;16.50;;;6.18;;
42704;SDS011;28342;42.594;23.414;2023-02-02T15:38:40;9.05;;;4.95;;
42704;SDS011;28342;42.594;23.414;2023-02-02T15:41:19;15.27;;;6.50;;
42704;SDS011;28342;42.594;23.414;2023-02-02T15:43:48;15.90;;;6.57;;
42704;SDS011;28342;42.594;23.414;2023-02-02T15:46:17;11.73;;;5.57;;
42704;SDS011;28342;42.594;23.414;2023-02-02T15:51:54;10.68;;;5.75;;
42704;SDS011;28342;42.594;23.414;2023-02-02T15:59:27;11.48;;;4.85;;
42704;SDS011;28342;42.594;23.414;2023-02-02T16:02:26;12.90;;;5.90;;
42704;SDS011;28342;42.594;23.414;2023-02-02T16:04:57;7.93;;;4.15;;
42704;SDS011;28342;42.594;23.414;2023-02-02T16:07:27;8.07;;;3.92;;
42704;SDS011;28342;42.594;23.414;2023-02-02T16:10:01;8.25;;;4.00;;
42704;SDS011;28342;42.594;23.414;2023-02-02T16:12:34;15.50;;;5.35;;
42704;SDS011;28342;42.594;23.414;2023-02-02T16:15:05;8.65;;;4.50;;
42704;SDS011;28342;42.594;23.414;2023-02-02T16:18:01;8.27;;;3.35;;
42704;SDS011;28342;42.594;23.414;2023-02-02T16:20:32;5.57;;;3.28;;
42704;SDS011;28342;42.594;23.414;2023-02-02T16:23:00;5.88;;;3.85;;
42704;SDS011;28342;42.594;23.414;2023-02-02T16:25:46;9.65;;;5.30;;
42704;SDS011;28342;42.594;23.414;2023-02-02T16:28:20;9.70;;;5.60;;
42704;SDS011;28342;42.594;23.414;2023-02-02T16:39:38;7.15;;;4.15;;
42704;SDS011;28342;42.594;23.414;2023-02-02T16:42:07;12.25;;;5.88;;
42704;SDS011;28342;42.594;23.414;2023-02-02T16:44:52;7.15;;;4.13;;
42704;SDS011;28342;42.594;23.414;2023-02-02T16:52:51;13.23;;;6.75;;
42704;SDS011;28342;42.594;23.414;2023-02-02T16:57:49;27.42;;;9.30;;
42704;SDS011;28342;42.594;23.414;2023-02-02T17:00:26;5.57;;;3.58;;
42704;SDS011;28342;42.594;23.414;2023-02-02T17:03:05;5.35;;;2.80;;
42704;SDS011;28342;42.594;23.414;2023-02-02T17:05:44;5.32;;;4.05;;
42704;SDS011;28342;42.594;23.414;2023-02-02T17:08:23;7.00;;;3.80;;
42704;SDS011;28342;42.594;23.414;2023-02-02T17:11:05;4.60;;;3.35;;
42704;SDS011;28342;42.594;23.414;2023-02-02T17:16:02;19.58;;;8.57;;
42704;SDS011;28342;42.594;23.414;2023-02-02T17:18:27;19.35;;;9.48;;
42704;SDS011;28342;42.594;23.414;2023-02-02T17:21:04;55.03;;;19.60;;
42704;SDS011;28342;42.594;23.414;2023-02-02T17:23:31;17.23;;;7.65;;
42704;SDS011;28342;42.594;23.414;2023-02-02T17:26:05;21.15;;;8.48;;
42704;SDS011;28342;42.594;23.414;2023-02-02T17:28:34;9.57;;;4.97;;
42704;SDS011;28342;42.594;23.414;2023-02-02T17:31:02;13.20;;;5.38;;
42704;SDS011;28342;42.594;23.414;2023-02-02T17:33:33;12.32;;;6.20;;
42704;SDS011;28342;42.594;23.414;2023-02-02T17:36:00;5.07;;;3.15;;
42704;SDS011;28342;42.594;23.414;2023-02-02T17:38:27;4.93;;;3.35;;
42704;SDS011;28342;42.594;23.414;2023-02-02T17:40:53;9.20;;;4.70;;
42704;SDS011;28342;42.594;23.414;2023-02-02T17:43:23;14.80;;;6.13;;
42704;SDS011;28342;42.594;23.414;2023-02-02T17:45:49;12.30;;;6.60;;
42704;SDS011;28342;42.594;23.414;2023-02-02T17:48:15;52.70;;;18.83;;
42704;SDS011;28342;42.594;23.414;2023-02-02T17:50:40;16.23;;;6.35;;
42704;SDS011;28342;42.594;23.414;2023-02-02T17:53:10;17.13;;;7.63;;